createdAt,value
2022-12-23T00:00:43.385Z,7.90
2022-12-23T00:03:10.568Z,7.84
2022-12-23T00:05:39.717Z,7.85
2022-12-23T00:08:08.449Z,7.93
2022-12-23T00:10:39.241Z,7.86
2022-12-23T00:13:25.161Z,7.77
2022-12-23T00:15:51.817Z,7.88
2022-12-23T00:18:18.357Z,7.90
2022-12-23T00:20:44.904Z,7.92
2022-12-23T00:23:12.092Z,7.89
2022-12-23T00:25:42.855Z,7.88
2022-12-23T00:28:18.005Z,7.84
2022-12-23T00:30:52.525Z,7.87
2022-12-23T00:33:23.239Z,7.88
2022-12-23T00:35:51.515Z,7.81
2022-12-23T00:38:38.136Z,7.84
2022-12-23T00:41:25.001Z,7.81
2022-12-23T00:43:52.111Z,7.81
2022-12-23T00:46:18.773Z,7.79
2022-12-23T00:49:04.090Z,7.80
2022-12-23T00:51:31.092Z,7.81
2022-12-23T00:53:58.197Z,7.79
2022-12-23T00:56:25.199Z,7.83
2022-12-23T00:58:52.227Z,7.80
2022-12-23T01:01:37.531Z,7.77
2022-12-23T01:04:23.468Z,7.75
2022-12-23T01:06:50.105Z,7.69
2022-12-23T01:09:16.642Z,7.72
2022-12-23T01:11:43.248Z,7.64
2022-12-23T01:14:09.807Z,7.67
2022-12-23T01:16:40.506Z,7.61
2022-12-23T01:19:07.540Z,7.63
2022-12-23T01:21:35.048Z,7.63
2022-12-23T01:24:02.251Z,7.58
2022-12-23T01:26:28.832Z,7.59
2022-12-23T01:28:56.863Z,7.54
2022-12-23T01:31:25.043Z,7.54
2022-12-23T01:33:52.041Z,7.54
2022-12-23T01:36:18.934Z,7.56
2022-12-23T01:38:45.770Z,7.54
2022-12-23T01:41:49.056Z,7.51
2022-12-23T01:44:53.153Z,7.51
2022-12-23T01:47:40.497Z,7.51
2022-12-23T01:50:12.923Z,7.46
2022-12-23T01:52:48.031Z,7.44
2022-12-23T01:55:16.921Z,7.39
2022-12-23T01:57:44.899Z,7.39
2022-12-23T02:00:30.532Z,7.35
2022-12-23T02:03:15.865Z,7.37
2022-12-23T02:05:45.937Z,7.30
2022-12-23T02:08:34.595Z,7.32
2022-12-23T02:11:07.945Z,7.34
2022-12-23T02:14:17.467Z,7.33
2022-12-23T02:16:55.160Z,7.30
2022-12-23T02:19:57.005Z,7.30
2022-12-23T02:22:42.002Z,7.28
2022-12-23T02:25:17.967Z,7.31
2022-12-23T02:28:11.214Z,7.25
2022-12-23T02:30:51.358Z,7.26
2022-12-23T02:33:33.021Z,7.17
2022-12-23T02:36:14.599Z,7.21
2022-12-23T02:39:13.481Z,7.24
2022-12-23T02:42:18.102Z,7.23
2022-12-23T02:44:53.911Z,7.23
2022-12-23T02:47:27.778Z,7.23
2022-12-23T02:49:57.787Z,7.15
2022-12-23T02:52:30.149Z,7.12
2022-12-23T02:55:12.881Z,7.16
2022-12-23T02:57:46.094Z,7.13
2022-12-23T03:00:14.093Z,7.19
2022-12-23T03:02:42.743Z,7.06
2022-12-23T03:05:43.894Z,7.17
2022-12-23T03:08:27.311Z,7.14
2022-12-23T03:11:12.797Z,7.09
2022-12-23T03:13:55.093Z,7.10
2022-12-23T03:16:37.700Z,7.01
2022-12-23T03:19:20.877Z,6.99
2022-12-23T03:21:53.280Z,7.02
2022-12-23T03:24:40.869Z,7.00
2022-12-23T03:27:13.219Z,6.95
2022-12-23T03:29:43.738Z,6.92
2022-12-23T03:32:13.937Z,6.91
2022-12-23T03:34:47.002Z,6.81
2022-12-23T03:37:17.162Z,6.84
2022-12-23T03:39:49.591Z,6.88
2022-12-23T03:42:35.147Z,6.81
2022-12-23T03:45:36.954Z,6.82
2022-12-23T03:47:59.218Z,6.76
2022-12-23T03:50:27.807Z,6.73
2022-12-23T03:53:04.824Z,6.79
2022-12-23T03:55:38.610Z,6.73
2022-12-23T03:58:43.430Z,6.77
2022-12-23T04:01:24.642Z,6.77
2022-12-23T04:04:48.621Z,6.78
2022-12-23T04:07:27.843Z,6.76
2022-12-23T04:09:55.182Z,6.74
2022-12-23T04:12:24.959Z,6.73
2022-12-23T04:14:51.853Z,6.66
2022-12-23T04:17:19.493Z,6.70
2022-12-23T04:19:47.149Z,6.69
2022-12-23T04:22:15.603Z,6.67
2022-12-23T04:24:43.330Z,6.70
2022-12-23T04:27:14.091Z,6.69
2022-12-23T04:29:41.269Z,6.63
2022-12-23T04:32:09.833Z,6.69
2022-12-23T04:34:36.452Z,6.52
2022-12-23T04:37:03.447Z,6.68
2022-12-23T04:39:30.155Z,6.60
2022-12-23T04:41:56.781Z,6.61
2022-12-23T04:44:23.379Z,6.63
2022-12-23T04:46:50.120Z,6.48
2022-12-23T04:49:17.285Z,6.56
2022-12-23T04:51:43.992Z,6.61
2022-12-23T04:54:12.559Z,6.59
2022-12-23T04:56:39.676Z,6.64
2022-12-23T04:59:06.809Z,6.60
2022-12-23T05:01:34.021Z,6.57
2022-12-23T05:04:01.166Z,6.53
2022-12-23T05:06:27.739Z,6.58
2022-12-23T05:08:54.346Z,6.60
2022-12-23T05:11:20.865Z,6.60
2022-12-23T05:13:47.465Z,6.55
2022-12-23T05:16:14.123Z,6.42
2022-12-23T05:18:41.315Z,6.57
2022-12-23T05:21:08.865Z,6.59
2022-12-23T05:23:35.452Z,6.56
2022-12-23T05:26:02.099Z,6.58
2022-12-23T05:28:29.734Z,6.53
2022-12-23T05:31:04.525Z,6.59
2022-12-23T05:33:34.309Z,6.60
2022-12-23T05:36:02.081Z,6.60
2022-12-23T05:38:28.773Z,6.57
2022-12-23T05:40:55.865Z,6.59
2022-12-23T05:43:22.771Z,6.57
2022-12-23T05:45:50.869Z,6.57
2022-12-23T05:48:17.569Z,6.56
2022-12-23T05:50:44.716Z,6.57
2022-12-23T05:53:12.468Z,6.58
2022-12-23T05:55:39.509Z,6.58
2022-12-23T05:58:06.051Z,6.55
2022-12-23T06:00:32.643Z,6.43
2022-12-23T06:02:59.528Z,6.52
2022-12-23T06:05:26.488Z,6.51
2022-12-23T06:07:53.177Z,6.57
2022-12-23T06:10:19.727Z,6.62
2022-12-23T06:12:46.287Z,6.58
2022-12-23T06:15:12.875Z,6.58
2022-12-23T06:17:40.198Z,6.61
2022-12-23T06:20:13.410Z,6.62
2022-12-23T06:22:45.654Z,6.60
2022-12-23T06:25:13.615Z,6.60
2022-12-23T06:27:41.080Z,6.56
2022-12-23T06:30:08.661Z,6.55
2022-12-23T06:32:40.499Z,6.42
2022-12-23T06:35:08.183Z,6.52
2022-12-23T06:37:35.981Z,6.59
2022-12-23T06:40:02.924Z,6.57
2022-12-23T06:42:30.102Z,6.58
2022-12-23T06:44:57.002Z,6.62
2022-12-23T06:47:23.556Z,6.50
2022-12-23T06:49:50.120Z,6.60
2022-12-23T06:52:16.995Z,6.51
2022-12-23T06:54:45.323Z,6.63
2022-12-23T06:57:12.127Z,6.63
2022-12-23T06:59:39.266Z,6.60
2022-12-23T07:02:06.823Z,6.60
2022-12-23T07:04:33.575Z,6.59
2022-12-23T07:07:01.243Z,6.62
2022-12-23T07:09:28.156Z,6.59
2022-12-23T07:11:54.826Z,6.61
2022-12-23T07:14:21.921Z,6.51
2022-12-23T07:16:51.085Z,6.60
2022-12-23T07:19:17.763Z,6.58
2022-12-23T07:21:44.388Z,6.55
2022-12-23T07:24:12.651Z,6.51
2022-12-23T07:26:39.375Z,6.57
2022-12-23T07:29:05.955Z,6.57
2022-12-23T07:31:32.640Z,6.49
2022-12-23T07:33:59.269Z,6.53
2022-12-23T07:36:25.822Z,6.48
2022-12-23T07:38:54.582Z,6.49
2022-12-23T07:41:21.164Z,6.46
2022-12-23T07:43:48.367Z,6.46
2022-12-23T07:46:15.111Z,6.27
2022-12-23T07:48:42.363Z,6.45
2022-12-23T07:51:09.009Z,6.27
2022-12-23T07:53:35.763Z,6.42
2022-12-23T07:56:02.413Z,6.37
2022-12-23T07:58:29.557Z,6.39
2022-12-23T08:01:02.467Z,6.43
2022-12-23T08:03:29.516Z,6.46
2022-12-23T08:06:09.310Z,6.47
2022-12-23T08:08:35.912Z,6.43
2022-12-23T08:11:08.017Z,6.46
2022-12-23T08:13:36.727Z,6.45
2022-12-23T08:16:05.760Z,6.46
2022-12-23T08:18:36.403Z,6.47
2022-12-23T08:21:09.060Z,6.40
2022-12-23T08:23:36.236Z,6.46
2022-12-23T08:26:06.051Z,6.40
2022-12-23T08:28:34.016Z,6.47
2022-12-23T08:31:13.282Z,6.47
2022-12-23T08:33:42.501Z,6.48
2022-12-23T08:36:16.118Z,6.49
2022-12-23T08:38:46.568Z,6.52
2022-12-23T08:41:17.081Z,6.54
2022-12-23T08:43:47.405Z,6.50
2022-12-23T08:46:14.009Z,6.51
2022-12-23T08:48:46.962Z,6.45
2022-12-23T08:51:16.818Z,6.56
2022-12-23T08:53:43.545Z,6.56
2022-12-23T08:56:13.549Z,6.43
2022-12-23T08:58:42.629Z,6.60
2022-12-23T09:01:10.687Z,6.42
2022-12-23T09:03:37.945Z,6.61
2022-12-23T09:06:11.664Z,6.57
2022-12-23T09:08:41.034Z,6.64
2022-12-23T09:11:12.278Z,6.60
2022-12-23T09:13:41.051Z,6.65
2022-12-23T09:16:08.241Z,6.64
2022-12-23T09:18:35.829Z,6.72
2022-12-23T09:21:05.650Z,6.73
2022-12-23T09:23:32.420Z,6.72
2022-12-23T09:25:59.126Z,6.75
2022-12-23T09:28:26.471Z,6.77
2022-12-23T09:30:53.389Z,6.76
2022-12-23T09:33:20.031Z,6.76
2022-12-23T09:35:46.729Z,6.80
2022-12-23T09:38:13.369Z,6.84
2022-12-23T09:40:42.492Z,6.81
2022-12-23T09:43:33.631Z,6.88
2022-12-23T09:46:08.777Z,6.91
2022-12-23T09:48:48.307Z,6.91
2022-12-23T09:51:19.011Z,6.92
2022-12-23T09:53:56.944Z,6.89
2022-12-23T09:56:51.643Z,6.98
2022-12-23T09:59:36.233Z,6.99
2022-12-23T10:02:31.264Z,7.05
2022-12-23T10:05:22.891Z,7.06
2022-12-23T10:08:18.548Z,7.09
2022-12-23T10:10:48.781Z,7.08
2022-12-23T10:13:26.802Z,7.12
2022-12-23T10:15:56.348Z,7.15
2022-12-23T10:18:38.349Z,7.19
2022-12-23T10:21:13.380Z,7.18
2022-12-23T10:23:42.714Z,7.23
2022-12-23T10:26:23.176Z,7.22
2022-12-23T10:29:20.148Z,7.20
2022-12-23T10:32:02.158Z,7.27
2022-12-23T10:34:38.731Z,7.23
2022-12-23T10:37:21.237Z,7.29
2022-12-23T10:40:09.870Z,7.23
2022-12-23T10:42:52.168Z,7.27
2022-12-23T10:45:33.977Z,7.32
2022-12-23T10:48:33.053Z,7.27
2022-12-23T10:51:06.163Z,7.27
2022-12-23T10:53:43.167Z,7.36
2022-12-23T10:56:11.802Z,7.37
2022-12-23T10:58:43.309Z,7.36
2022-12-23T11:01:21.797Z,7.38
2022-12-23T11:04:09.875Z,7.39
2022-12-23T11:06:42.542Z,7.38
2022-12-23T11:09:18.507Z,7.37
2022-12-23T11:12:05.767Z,7.42
2022-12-23T11:14:50.248Z,7.43
2022-12-23T11:17:28.118Z,7.46
2022-12-23T11:20:16.327Z,7.44
2022-12-23T11:22:58.332Z,7.38
2022-12-23T11:25:24.830Z,7.43
2022-12-23T11:28:03.783Z,7.33
2022-12-23T11:30:33.077Z,7.28
2022-12-23T11:33:00.141Z,7.46
2022-12-23T11:35:33.828Z,7.50
2022-12-23T11:38:02.842Z,7.47
2022-12-23T11:40:31.987Z,7.51
2022-12-23T11:43:11.774Z,7.47
2022-12-23T11:45:38.865Z,7.46
2022-12-23T11:48:25.898Z,7.59
2022-12-23T11:51:01.368Z,7.58
2022-12-23T11:53:28.818Z,7.62
2022-12-23T11:56:07.556Z,7.62
2022-12-23T11:58:47.139Z,7.58
2022-12-23T12:01:20.209Z,7.65
2022-12-23T12:03:50.186Z,7.65
2022-12-23T12:06:19.459Z,7.61
2022-12-23T12:08:51.508Z,7.71
2022-12-23T12:11:25.617Z,7.73
2022-12-23T12:14:06.369Z,7.67
2022-12-23T12:16:54.567Z,7.74
2022-12-23T12:19:26.016Z,7.74
2022-12-23T12:21:57.311Z,7.73
2022-12-23T12:24:39.513Z,7.72
2022-12-23T12:27:11.430Z,7.75
2022-12-23T12:29:51.404Z,7.69
2022-12-23T12:32:30.379Z,7.75
2022-12-23T12:35:20.159Z,7.67
2022-12-23T12:37:53.779Z,7.73
2022-12-23T12:40:34.121Z,7.76
2022-12-23T12:43:19.659Z,7.76
2022-12-23T12:45:53.671Z,7.73
2022-12-23T12:48:36.553Z,7.81
2022-12-23T12:51:09.082Z,7.80
2022-12-23T12:53:39.690Z,7.75
2022-12-23T12:56:27.464Z,7.84
2022-12-23T12:58:54.100Z,7.80
2022-12-23T13:01:59.055Z,7.74
2022-12-23T13:04:47.150Z,7.84
2022-12-23T13:07:40.699Z,7.84
2022-12-23T13:10:34.936Z,7.89
2022-12-23T13:13:41.440Z,7.86
2022-12-23T13:16:15.644Z,7.85
2022-12-23T13:19:01.389Z,7.88
2022-12-23T13:21:54.086Z,7.87
2022-12-23T13:24:37.399Z,7.87
2022-12-23T13:27:33.318Z,7.87
2022-12-23T13:30:16.451Z,7.87
2022-12-23T13:33:00.486Z,7.89
2022-12-23T13:35:46.672Z,7.89
2022-12-23T13:38:40.815Z,7.88
2022-12-23T13:41:23.247Z,7.88
2022-12-23T13:44:04.625Z,7.84
2022-12-23T13:46:48.200Z,7.89
2022-12-23T13:49:31.695Z,7.92
2022-12-23T13:52:12.616Z,7.93
2022-12-23T13:54:57.498Z,7.92
2022-12-23T13:57:34.703Z,7.91
2022-12-23T14:00:34.006Z,7.94
2022-12-23T14:03:15.815Z,7.95
2022-12-23T14:05:50.465Z,7.94
2022-12-23T14:08:22.920Z,7.95
2022-12-23T14:11:05.159Z,7.94
2022-12-23T14:13:45.087Z,7.96
2022-12-23T14:16:39.985Z,7.93
2022-12-23T14:19:19.123Z,7.93
2022-12-23T14:22:15.341Z,7.94
2022-12-23T14:25:08.458Z,7.94
2022-12-23T14:27:50.670Z,7.92
2022-12-23T14:30:37.342Z,7.91
2022-12-23T14:33:30.432Z,7.87
2022-12-23T14:36:28.772Z,7.80
2022-12-23T14:39:20.899Z,7.90
2022-12-23T14:42:01.649Z,7.89
2022-12-23T14:44:48.314Z,7.89
2022-12-23T14:47:40.508Z,7.86
2022-12-23T14:50:52.952Z,7.84
2022-12-23T14:53:24.378Z,7.82
2022-12-23T14:56:10.160Z,7.80
2022-12-23T14:58:41.636Z,7.83
2022-12-23T15:01:14.947Z,7.78
2022-12-23T15:03:54.578Z,7.75
2022-12-23T15:06:42.623Z,7.78
2022-12-23T15:09:27.106Z,7.76
2022-12-23T15:12:01.242Z,7.74
2022-12-23T15:14:46.558Z,7.77
2022-12-23T15:17:18.498Z,7.79
2022-12-23T15:19:49.070Z,7.80
2022-12-23T15:22:23.677Z,7.75
2022-12-23T15:24:53.097Z,7.77
2022-12-23T15:27:28.462Z,7.76
2022-12-23T15:29:57.551Z,7.71
2022-12-23T15:32:31.551Z,7.78
2022-12-23T15:35:16.121Z,7.73
2022-12-23T15:37:49.341Z,7.76
2022-12-23T15:40:26.683Z,7.76
2022-12-23T15:42:53.876Z,7.74
2022-12-23T15:45:23.251Z,7.76
2022-12-23T15:47:50.478Z,7.75
2022-12-23T15:50:20.270Z,7.75
2022-12-23T15:52:49.724Z,7.72
2022-12-23T15:55:30.881Z,7.76
2022-12-23T15:58:01.600Z,7.74
2022-12-23T16:00:46.001Z,7.70
2022-12-23T16:03:33.038Z,7.72
2022-12-23T16:06:18.643Z,7.74
2022-12-23T16:08:50.837Z,7.72
2022-12-23T16:11:20.147Z,7.69
2022-12-23T16:14:01.095Z,7.69
2022-12-23T16:16:28.122Z,7.71
2022-12-23T16:18:55.794Z,7.69
2022-12-23T16:21:28.234Z,7.71
2022-12-23T16:23:58.026Z,7.68
2022-12-23T16:26:27.729Z,7.69
2022-12-23T16:28:59.729Z,7.70
2022-12-23T16:31:27.094Z,7.64
2022-12-23T16:34:02.962Z,7.71
2022-12-23T16:36:45.083Z,7.71
2022-12-23T16:39:28.829Z,7.71
2022-12-23T16:41:56.962Z,7.74
2022-12-23T16:44:27.439Z,7.73
2022-12-23T16:46:54.218Z,7.66
2022-12-23T16:49:34.378Z,7.71
2022-12-23T16:52:01.754Z,7.69
2022-12-23T16:54:31.333Z,7.72
2022-12-23T16:56:58.695Z,7.69
2022-12-23T16:59:26.002Z,7.67
2022-12-23T17:02:02.894Z,7.64
2022-12-23T17:04:30.183Z,7.68
2022-12-23T17:06:59.413Z,7.65
2022-12-23T17:09:26.474Z,7.64
2022-12-23T17:11:54.255Z,7.70
2022-12-23T17:14:26.834Z,7.67
2022-12-23T17:16:54.431Z,7.59
2022-12-23T17:19:27.910Z,7.61
2022-12-23T17:22:00.337Z,7.63
2022-12-23T17:24:27.542Z,7.63
2022-12-23T17:26:55.849Z,7.64
2022-12-23T17:29:22.995Z,7.64
2022-12-23T17:31:51.166Z,7.62
2022-12-23T17:34:20.103Z,7.53
2022-12-23T17:36:50.287Z,7.59
2022-12-23T17:39:17.779Z,7.52
2022-12-23T17:41:44.580Z,7.41
2022-12-23T17:44:14.190Z,7.52
2022-12-23T17:46:41.019Z,7.37
2022-12-23T17:49:08.672Z,7.47
2022-12-23T17:51:36.250Z,7.42
2022-12-23T17:54:04.655Z,7.46
2022-12-23T17:56:31.318Z,7.49
2022-12-23T17:58:58.512Z,7.45
2022-12-23T18:01:28.228Z,7.48
2022-12-23T18:03:56.183Z,7.48
2022-12-23T18:06:29.529Z,7.47
2022-12-23T18:11:58.753Z,7.46
2022-12-23T18:17:30.534Z,7.39
2022-12-23T18:20:16.038Z,7.47
2022-12-23T18:22:48.186Z,7.47
2022-12-23T18:25:26.950Z,7.43
2022-12-23T18:27:55.328Z,7.38
2022-12-23T18:30:22.504Z,7.41
2022-12-23T18:32:49.212Z,7.46
2022-12-23T18:35:39.741Z,7.47
2022-12-23T18:38:06.300Z,7.46
2022-12-23T18:40:33.361Z,7.37
2022-12-23T18:43:00.769Z,7.47
2022-12-23T18:46:01.209Z,7.47
2022-12-23T18:48:28.371Z,7.46
2022-12-23T18:50:58.149Z,7.50
2022-12-23T18:53:25.587Z,7.54
2022-12-23T18:55:53.653Z,7.52
2022-12-23T18:58:21.252Z,7.59
2022-12-23T19:00:50.107Z,7.54
2022-12-23T19:03:27.557Z,7.66
2022-12-23T19:05:55.826Z,7.68
2022-12-23T19:08:27.243Z,7.65
2022-12-23T19:11:01.849Z,7.80
2022-12-23T19:13:28.506Z,7.91
2022-12-23T19:15:56.823Z,8.01
2022-12-23T19:18:24.013Z,8.04
2022-12-23T19:20:50.907Z,8.10
2022-12-23T19:23:18.071Z,8.11
2022-12-23T19:25:54.472Z,8.15
2022-12-23T19:28:29.803Z,8.17
2022-12-23T19:30:56.492Z,8.37
2022-12-23T19:33:26.664Z,8.41
2022-12-23T19:35:57.399Z,8.49
2022-12-23T19:38:27.163Z,8.51
2022-12-23T19:40:57.703Z,8.56
2022-12-23T19:43:27.004Z,8.52
2022-12-23T19:45:58.832Z,8.54
2022-12-23T19:48:26.181Z,8.59
2022-12-23T19:51:13.972Z,8.52
2022-12-23T19:53:43.106Z,8.51
2022-12-23T19:56:15.443Z,8.53
2022-12-23T19:58:43.965Z,8.55
2022-12-23T20:01:17.243Z,8.50
2022-12-23T20:03:46.827Z,8.52
2022-12-23T20:06:17.311Z,8.54
2022-12-23T20:08:44.379Z,8.59
2022-12-23T20:11:16.762Z,8.66
2022-12-23T20:13:44.839Z,8.52
2022-12-23T20:16:11.544Z,8.55
2022-12-23T20:18:39.103Z,8.54
2022-12-23T20:21:07.285Z,8.68
2022-12-23T20:23:34.558Z,8.66
2022-12-23T20:26:01.674Z,8.52
2022-12-23T20:28:29.300Z,8.49
2022-12-23T20:31:01.881Z,8.54
2022-12-23T20:33:29.798Z,8.67
2022-12-23T20:35:56.435Z,8.59
2022-12-23T20:38:24.107Z,8.61
2022-12-23T20:40:50.649Z,8.75
2022-12-23T20:43:17.788Z,8.81
2022-12-23T20:45:44.930Z,8.82
2022-12-23T20:48:11.467Z,8.75
2022-12-23T20:50:40.674Z,8.82
2022-12-23T20:53:07.493Z,8.77
2022-12-23T20:55:34.042Z,8.78
2022-12-23T20:58:23.540Z,8.77
2022-12-23T21:00:51.063Z,8.76
2022-12-23T21:03:17.748Z,8.84
2022-12-23T21:05:44.895Z,8.79
2022-12-23T21:08:11.494Z,8.91
2022-12-23T21:10:39.721Z,8.88
2022-12-23T21:13:07.875Z,8.62
2022-12-23T21:15:34.458Z,8.86
2022-12-23T21:18:02.459Z,8.92
2022-12-23T21:20:29.073Z,8.85
2022-12-23T21:23:03.474Z,8.92
2022-12-23T21:25:34.224Z,8.88
2022-12-23T21:28:13.315Z,8.69
2022-12-23T21:30:43.925Z,8.82
2022-12-23T21:33:14.836Z,8.84
2022-12-23T21:35:41.390Z,8.71
2022-12-23T21:38:08.375Z,8.64
2022-12-23T21:40:35.495Z,8.69
2022-12-23T21:43:08.400Z,8.54
2022-12-23T21:45:38.324Z,8.66
2022-12-23T21:48:05.390Z,8.65
2022-12-23T21:50:35.189Z,8.66
2022-12-23T21:53:10.930Z,8.61
2022-12-23T21:55:38.045Z,8.53
2022-12-23T21:58:10.213Z,8.62
2022-12-23T22:00:37.709Z,8.58
2022-12-23T22:03:04.913Z,8.54
2022-12-23T22:05:32.380Z,8.62
2022-12-23T22:08:05.215Z,8.56
2022-12-23T22:10:40.435Z,8.55
2022-12-23T22:13:07.139Z,8.52
2022-12-23T22:15:33.702Z,8.45
2022-12-23T22:18:04.671Z,8.43
2022-12-23T22:20:46.773Z,8.54
2022-12-23T22:23:15.481Z,8.55
2022-12-23T22:25:45.241Z,8.43
2022-12-23T22:28:23.736Z,8.48
2022-12-23T22:31:00.355Z,8.44
2022-12-23T22:33:26.891Z,8.42
2022-12-23T22:35:56.887Z,8.48
2022-12-23T22:38:26.883Z,8.47
2022-12-23T22:40:54.347Z,8.42
2022-12-23T22:43:21.038Z,8.42
2022-12-23T22:46:00.664Z,8.42
2022-12-23T22:48:30.660Z,8.43
2022-12-23T22:51:09.715Z,8.36
2022-12-23T22:53:37.447Z,8.38
2022-12-23T22:56:06.066Z,8.29
2022-12-23T22:58:34.988Z,8.39
2022-12-23T23:01:03.825Z,8.39
2022-12-23T23:03:35.670Z,8.34
2022-12-23T23:06:08.889Z,8.34
2022-12-23T23:08:43.033Z,8.35
2022-12-23T23:11:11.340Z,8.32
2022-12-23T23:13:39.880Z,8.32
2022-12-23T23:16:07.268Z,8.28
2022-12-23T23:18:34.464Z,8.26
2022-12-23T23:21:01.071Z,8.33
2022-12-23T23:23:28.373Z,8.32
2022-12-23T23:25:55.372Z,8.26
2022-12-23T23:28:22.560Z,8.26
2022-12-23T23:30:55.402Z,8.23
2022-12-23T23:33:30.341Z,8.26
2022-12-23T23:35:59.018Z,8.17
2022-12-23T23:38:27.087Z,8.29
2022-12-23T23:40:55.616Z,8.26
2022-12-23T23:43:24.001Z,8.30
2022-12-23T23:45:51.400Z,8.22
2022-12-23T23:48:19.342Z,8.24
2022-12-23T23:50:45.943Z,8.23
2022-12-23T23:53:13.448Z,8.30
2022-12-23T23:55:40.573Z,8.19
2022-12-23T23:58:08.117Z,8.17
